Time;durP1;ratioP1;P1;durP2;ratioP2;P2;SDS_P1;SDS_P2;PMS_P1;PMS_P2;Temp;Humidity;BMP_temperature;BMP_pressure;BME280_temperature;BME280_humidity;BME280_pressure;Samples;Min_cycle;Max_cycle;Signal;HPM_P1;HPM_P2
2021/11/19 00:00:43;;;;;;;;;;;11.50;99.90;;;;;;5094906;28;20284;-78
2021/11/19 00:03:09;;;;;;;;;;;11.60;99.90;;;;;;5094589;28;20394;-78
2021/11/19 00:05:35;;;;;;;;;;;11.50;99.90;;;;;;5094880;28;19911;-79
2021/11/19 00:08:01;;;;;;;;;;;11.40;99.90;;;;;;5093398;28;19912;-79
2021/11/19 00:10:27;;;;;;;;;;;11.30;99.90;;;;;;5094646;28;19912;-79
2021/11/19 00:12:53;;;;;;;;;;;11.60;99.90;;;;;;5093359;28;20342;-79
2021/11/19 00:15:19;;;;;;;;;;;11.70;99.90;;;;;;5094641;28;19916;-78
2021/11/19 00:17:45;;;;;;;;;;;11.60;99.90;;;;;;5094548;28;20383;-79
2021/11/19 00:20:11;;;;;;;;;;;11.40;99.90;;;;;;5094538;28;19908;-79
2021/11/19 00:22:38;;;;;;;;;;;11.40;99.90;;;;;;5094510;28;19908;-78
2021/11/19 00:25:04;;;;;;;;;;;11.50;99.90;;;;;;5094464;28;19958;-78
2021/11/19 00:27:29;;;;;;;;;;;11.80;99.90;;;;;;5094614;28;20395;-78
2021/11/19 00:29:55;;;;;;;;;;;11.80;99.90;;;;;;5094403;28;19912;-79
2021/11/19 00:32:21;;;;;;;;;;;11.70;99.90;;;;;;5094372;28;19999;-79
2021/11/19 00:34:48;;;;;;;;;;;11.80;99.90;;;;;;5094305;28;20011;-79
2021/11/19 00:37:14;;;;;;;;;;;11.70;99.90;;;;;;5094379;28;19952;-78
2021/11/19 00:39:40;;;;;;;;;;;11.50;99.90;;;;;;5094189;28;20038;-78
2021/11/19 00:42:07;;;;;;;;;;;11.50;99.90;;;;;;5092875;28;20410;-79
2021/11/19 00:44:33;;;;;;;;;;;11.50;99.90;;;;;;5094583;28;19908;-79
2021/11/19 00:46:59;;;;;;;;;;;11.40;99.90;;;;;;5092845;28;19912;-79
2021/11/19 00:49:26;;;;;;;;;;;11.30;99.90;;;;;;5094174;28;19912;-80
2021/11/19 00:51:54;;;;;;;;;;;11.30;99.90;;;;;;5092723;28;20372;-79
2021/11/19 00:54:20;;;;;;;;;;;11.40;99.90;;;;;;5093973;28;19919;-78
2021/11/19 00:56:48;;;;;;;;;;;11.50;99.90;;;;;;5094479;28;20292;-79
2021/11/19 00:59:14;;;;;;;;;;;11.40;99.90;;;;;;5094210;28;20280;-78
2021/11/19 01:01:42;;;;;;;;;;;11.60;99.90;;;;;;5093765;28;19912;-78
2021/11/19 01:04:09;;;;;;;;;;;11.60;99.90;;;;;;5093663;28;20011;-78
2021/11/19 01:07:12;;;;;;;;;;;11.60;99.90;;;;;;5093826;28;19965;-79
2021/11/19 01:09:43;;;;;;;;;;;11.60;99.90;;;;;;5092208;28;20390;-78
2021/11/19 01:12:10;;;;;;;;;;;11.70;99.90;;;;;;5094145;28;20368;-78
2021/11/19 01:14:38;;;;;;;;;;;11.60;99.90;;;;;;5092479;28;19916;-79
2021/11/19 01:17:07;;;;;;;;;;;11.40;99.90;;;;;;5093736;28;19939;-78
2021/11/19 01:19:51;;;;;;;;;;;11.30;99.90;;;;;;5093904;28;19995;-79
2021/11/19 01:22:19;;;;;;;;;;;11.30;99.90;;;;;;5093727;28;20335;-78
2021/11/19 01:24:44;;;;;;;;;;;11.70;99.90;;;;;;5093674;28;20401;-78
2021/11/19 01:27:10;;;;;;;;;;;11.80;99.90;;;;;;5093940;28;19912;-78
2021/11/19 01:29:36;;;;;;;;;;;11.50;99.90;;;;;;5092258;28;19916;-79
2021/11/19 01:32:12;;;;;;;;;;;11.40;99.90;;;;;;5092333;28;19908;-78
2021/11/19 01:34:38;;;;;;;;;;;11.30;99.90;;;;;;5094049;28;20296;-78
2021/11/19 01:37:05;;;;;;;;;;;11.40;99.90;;;;;;5093532;28;19908;-79
2021/11/19 01:39:31;;;;;;;;;;;11.30;99.90;;;;;;5093454;28;19932;-78
2021/11/19 01:42:01;;;;;;;;;;;11.40;99.90;;;;;;5093505;28;19908;-79
2021/11/19 01:44:32;;;;;;;;;;;11.50;99.90;;;;;;5093498;28;19909;-79
2021/11/19 01:46:58;;;;;;;;;;;11.60;99.90;;;;;;5093799;28;19908;-79
2021/11/19 01:49:25;;;;;;;;;;;11.50;99.90;;;;;;5093352;28;19965;-78
2021/11/19 01:51:53;;;;;;;;;;;11.60;99.90;;;;;;5093420;28;20387;-79
2021/11/19 01:54:24;;;;;;;;;;;11.70;99.90;;;;;;5093778;28;19912;-79
2021/11/19 01:56:55;;;;;;;;;;;11.90;99.90;;;;;;5093675;28;19941;-79
2021/11/19 01:59:24;;;;;;;;;;;11.80;99.90;;;;;;5093370;28;20399;-77
2021/11/19 02:01:58;;;;;;;;;;;11.50;99.90;;;;;;5093570;28;19916;-79
2021/11/19 02:04:26;;;;;;;;;;;11.60;99.90;;;;;;5093536;28;19911;-79
2021/11/19 02:06:56;;;;;;;;;;;11.60;99.90;;;;;;5093474;28;19908;-79
2021/11/19 02:09:28;;;;;;;;;;;11.40;99.90;;;;;;5091593;28;19951;-79
2021/11/19 02:11:56;;;;;;;;;;;11.70;99.90;;;;;;5093664;28;20003;-79
2021/11/19 02:14:35;;;;;;;;;;;11.80;99.90;;;;;;5093356;28;19915;-79
2021/11/19 02:17:02;;;;;;;;;;;11.60;99.90;;;;;;5094972;28;19915;-79
2021/11/19 02:19:29;;;;;;;;;;;11.80;99.90;;;;;;5096841;28;19951;-79
2021/11/19 02:22:00;;;;;;;;;;;11.90;99.90;;;;;;5096768;28;19908;-78
2021/11/19 02:24:31;;;;;;;;;;;11.90;99.90;;;;;;5096934;28;19908;-78
2021/11/19 02:26:57;;;;;;;;;;;11.70;99.90;;;;;;5096820;28;19908;-79
2021/11/19 02:29:23;;;;;;;;;;;11.50;99.90;;;;;;5096595;28;19920;-78
2021/11/19 02:32:12;;;;;;;;;;;11.40;99.90;;;;;;5096670;28;19931;-78
2021/11/19 02:34:37;;;;;;;;;;;11.60;99.90;;;;;;5090976;28;20378;-79
2021/11/19 02:37:08;;;;;;;;;;;11.60;99.90;;;;;;5096520;28;19909;-78
2021/11/19 02:39:42;;;;;;;;;;;11.80;99.90;;;;;;5096411;28;19908;-78
2021/11/19 02:42:10;;;;;;;;;;;11.60;99.90;;;;;;5096792;28;19908;-79
2021/11/19 02:44:36;;;;;;;;;;;11.50;99.90;;;;;;5096423;28;19908;-79
2021/11/19 02:47:04;;;;;;;;;;;11.70;99.90;;;;;;5096327;28;19996;-78
2021/11/19 02:49:31;;;;;;;;;;;11.80;99.90;;;;;;5096176;28;19923;-79
2021/11/19 02:51:57;;;;;;;;;;;11.80;99.90;;;;;;5096260;28;19960;-78
2021/11/19 02:54:25;;;;;;;;;;;11.80;99.90;;;;;;5096293;28;19912;-79
2021/11/19 02:56:51;;;;;;;;;;;11.90;99.90;;;;;;5096103;28;19915;-78
2021/11/19 02:59:17;;;;;;;;;;;11.80;99.90;;;;;;5096224;28;20011;-79
2021/11/19 03:01:45;;;;;;;;;;;11.70;99.90;;;;;;5096042;28;19961;-78
2021/11/19 03:04:15;;;;;;;;;;;11.70;99.90;;;;;;5096216;28;19908;-79
2021/11/19 03:06:43;;;;;;;;;;;11.90;99.90;;;;;;5096396;28;19915;-78
2021/11/19 03:09:09;;;;;;;;;;;11.90;99.90;;;;;;5095603;28;19920;-79
2021/11/19 03:11:35;;;;;;;;;;;11.80;99.90;;;;;;5095845;28;19957;-79
2021/11/19 03:14:04;;;;;;;;;;;11.80;99.90;;;;;;5095831;28;19908;-78
2021/11/19 03:16:30;;;;;;;;;;;11.70;99.90;;;;;;5095709;28;19912;-78
2021/11/19 03:18:56;;;;;;;;;;;11.70;99.90;;;;;;5095698;28;20387;-79
2021/11/19 03:21:23;;;;;;;;;;;11.80;99.90;;;;;;5095736;28;20273;-78
2021/11/19 03:23:49;;;;;;;;;;;11.60;99.90;;;;;;5095640;28;20384;-78
2021/11/19 03:26:15;;;;;;;;;;;11.70;99.90;;;;;;5095737;28;19915;-78
2021/11/19 03:28:44;;;;;;;;;;;11.70;99.90;;;;;;5095584;28;19965;-78
2021/11/19 03:31:11;;;;;;;;;;;11.70;99.90;;;;;;5095531;28;19966;-79
2021/11/19 03:33:38;;;;;;;;;;;11.70;99.90;;;;;;5095397;28;20406;-79
2021/11/19 03:36:04;;;;;;;;;;;11.60;99.90;;;;;;5095360;28;20307;-79
2021/11/19 03:38:31;;;;;;;;;;;11.60;99.90;;;;;;5095603;28;20399;-78
2021/11/19 03:40:58;;;;;;;;;;;11.80;99.90;;;;;;5095281;28;19914;-78
2021/11/19 03:43:26;;;;;;;;;;;11.80;99.90;;;;;;5095250;28;19908;-79
2021/11/19 03:45:54;;;;;;;;;;;11.60;99.90;;;;;;5095111;28;19908;-78
2021/11/19 03:48:20;;;;;;;;;;;11.50;99.90;;;;;;5093872;28;19944;-79
2021/11/19 03:50:57;;;;;;;;;;;11.40;99.90;;;;;;5095051;28;19913;-79
2021/11/19 03:53:24;;;;;;;;;;;11.60;99.90;;;;;;5095155;28;19957;-78
2021/11/19 03:55:50;;;;;;;;;;;11.80;99.90;;;;;;5094999;28;20298;-79
2021/11/19 03:58:17;;;;;;;;;;;11.80;99.90;;;;;;5094950;28;19940;-79
2021/11/19 04:00:45;;;;;;;;;;;11.90;99.90;;;;;;5094909;28;20439;-78
2021/11/19 04:03:11;;;;;;;;;;;11.60;99.90;;;;;;5095059;28;19962;-79
2021/11/19 04:05:38;;;;;;;;;;;11.50;99.90;;;;;;5094855;28;20287;-79
2021/11/19 04:08:05;;;;;;;;;;;11.70;99.90;;;;;;5094557;28;20009;-79
2021/11/19 04:10:31;;;;;;;;;;;11.80;99.90;;;;;;5094604;28;19923;-79
2021/11/19 04:12:56;;;;;;;;;;;11.70;99.90;;;;;;5094814;28;19908;-79
2021/11/19 04:15:25;;;;;;;;;;;11.60;99.90;;;;;;5094608;28;20399;-78
2021/11/19 04:17:50;;;;;;;;;;;11.50;99.90;;;;;;5094729;28;19908;-79
2021/11/19 04:20:17;;;;;;;;;;;11.50;99.90;;;;;;5094854;28;19912;-78
2021/11/19 04:22:43;;;;;;;;;;;11.70;99.90;;;;;;5094576;28;20257;-79
2021/11/19 04:25:10;;;;;;;;;;;11.70;99.90;;;;;;5094421;28;19962;-78
2021/11/19 04:27:36;;;;;;;;;;;11.80;99.90;;;;;;5093102;28;20350;-78
2021/11/19 04:30:02;;;;;;;;;;;11.90;99.90;;;;;;5094292;28;20011;-79
2021/11/19 04:32:28;;;;;;;;;;;11.60;99.90;;;;;;5094420;28;19908;-79
2021/11/19 04:34:54;;;;;;;;;;;11.60;99.90;;;;;;5094302;28;19915;-78
2021/11/19 04:37:20;;;;;;;;;;;11.60;99.90;;;;;;5094232;28;20261;-79
2021/11/19 04:39:46;;;;;;;;;;;11.40;99.90;;;;;;5094137;28;19915;-79
2021/11/19 04:42:12;;;;;;;;;;;11.60;99.90;;;;;;5094275;28;19994;-78
2021/11/19 04:44:38;;;;;;;;;;;11.60;99.90;;;;;;5094149;28;20436;-78
2021/11/19 04:47:04;;;;;;;;;;;11.60;99.90;;;;;;5094132;28;20006;-78
2021/11/19 04:49:30;;;;;;;;;;;11.30;99.90;;;;;;5094026;28;19923;-78
2021/11/19 04:51:56;;;;;;;;;;;11.40;99.90;;;;;;5094623;28;19908;-78
2021/11/19 04:54:22;;;;;;;;;;;11.30;99.90;;;;;;5093994;28;20407;-78
2021/11/19 04:56:49;;;;;;;;;;;11.10;99.90;;;;;;5093996;28;20384;-78
2021/11/19 04:59:15;;;;;;;;;;;11.00;99.90;;;;;;5093939;28;19957;-78
2021/11/19 05:01:43;;;;;;;;;;;10.90;99.90;;;;;;5093913;28;19909;-78
2021/11/19 05:04:10;;;;;;;;;;;10.90;99.90;;;;;;5094038;28;19983;-79
2021/11/19 05:06:35;;;;;;;;;;;10.80;99.90;;;;;;5093829;28;19912;-79
2021/11/19 05:09:02;;;;;;;;;;;10.80;99.90;;;;;;5093594;28;20296;-78
2021/11/19 05:11:30;;;;;;;;;;;10.80;99.90;;;;;;5093742;28;19958;-79
2021/11/19 05:13:58;;;;;;;;;;;10.80;99.90;;;;;;5093764;28;19948;-79
2021/11/19 05:16:24;;;;;;;;;;;10.70;99.90;;;;;;5093915;28;19908;-79
2021/11/19 05:18:49;;;;;;;;;;;10.50;99.90;;;;;;5093741;28;20380;-79
2021/11/19 05:21:16;;;;;;;;;;;10.50;99.90;;;;;;5093876;28;19960;-78
2021/11/19 05:23:42;;;;;;;;;;;10.50;99.90;;;;;;5093714;28;19908;-78
2021/11/19 05:26:08;;;;;;;;;;;10.50;99.90;;;;;;5093846;28;19908;-79
2021/11/19 05:28:35;;;;;;;;;;;10.40;99.90;;;;;;5093663;28;19908;-78
2021/11/19 05:31:01;;;;;;;;;;;10.30;99.90;;;;;;5093562;28;20391;-79
2021/11/19 05:33:27;;;;;;;;;;;10.00;99.90;;;;;;5093628;28;19908;-79
2021/11/19 05:35:53;;;;;;;;;;;10.00;99.90;;;;;;5092346;28;19908;-79
2021/11/19 05:38:20;;;;;;;;;;;10.10;99.90;;;;;;5093602;28;19908;-79
2021/11/19 05:40:45;;;;;;;;;;;10.00;99.90;;;;;;5093517;28;19953;-78
2021/11/19 05:43:11;;;;;;;;;;;9.70;99.90;;;;;;5093548;28;19908;-78
2021/11/19 05:45:37;;;;;;;;;;;9.70;99.90;;;;;;5092238;28;19908;-78
2021/11/19 05:48:03;;;;;;;;;;;9.60;99.90;;;;;;5092226;28;19930;-79
2021/11/19 05:50:30;;;;;;;;;;;9.50;99.90;;;;;;5093428;28;19962;-79
2021/11/19 05:52:57;;;;;;;;;;;9.30;99.90;;;;;;5096735;28;20284;-79
2021/11/19 05:55:24;;;;;;;;;;;9.30;99.90;;;;;;5097341;28;19993;-78
2021/11/19 05:57:50;;;;;;;;;;;9.30;99.90;;;;;;5097199;28;19912;-78
2021/11/19 06:00:20;;;;;;;;;;;9.20;99.90;;;;;;5097240;28;20395;-78
2021/11/19 06:02:47;;;;;;;;;;;9.30;99.90;;;;;;5097310;28;19908;-78
2021/11/19 06:05:13;;;;;;;;;;;9.40;99.90;;;;;;5097158;28;19908;-78
2021/11/19 06:07:39;;;;;;;;;;;9.30;99.90;;;;;;5095856;28;20387;-77
2021/11/19 06:10:05;;;;;;;;;;;9.10;99.90;;;;;;5096598;28;19920;-78
2021/11/19 06:12:34;;;;;;;;;;;9.00;99.90;;;;;;5097186;28;19931;-78
2021/11/19 06:15:01;;;;;;;;;;;9.20;99.90;;;;;;5096981;28;20461;-78
2021/11/19 06:17:46;;;;;;;;;;;9.30;99.90;;;;;;5097190;28;19953;-78
2021/11/19 06:20:12;;;;;;;;;;;9.40;99.90;;;;;;5096880;28;19912;-79
2021/11/19 06:22:39;;;;;;;;;;;9.40;99.90;;;;;;5096815;28;20307;-78
2021/11/19 06:25:06;;;;;;;;;;;9.10;99.90;;;;;;5095454;28;20006;-79
2021/11/19 06:27:34;;;;;;;;;;;9.00;99.90;;;;;;5096737;28;19908;-78
2021/11/19 06:30:00;;;;;;;;;;;9.00;99.90;;;;;;5096778;28;20146;-79
2021/11/19 06:32:26;;;;;;;;;;;9.20;99.90;;;;;;5096604;28;19955;-77
2021/11/19 06:34:53;;;;;;;;;;;9.00;99.90;;;;;;5096575;28;19912;-79
2021/11/19 06:37:19;;;;;;;;;;;8.80;99.90;;;;;;5096499;28;19908;-79
2021/11/19 06:39:44;;;;;;;;;;;8.90;99.90;;;;;;5096573;28;19915;-79
2021/11/19 06:42:11;;;;;;;;;;;8.90;99.90;;;;;;5096428;28;19908;-78
2021/11/19 06:44:37;;;;;;;;;;;8.80;99.90;;;;;;5096403;28;19908;-78
2021/11/19 06:47:03;;;;;;;;;;;8.50;99.90;;;;;;5096363;28;19908;-79
2021/11/19 06:49:29;;;;;;;;;;;8.50;99.90;;;;;;5096394;28;19912;-78
2021/11/19 06:51:54;;;;;;;;;;;8.60;99.90;;;;;;5096248;28;19931;-79
2021/11/19 06:54:20;;;;;;;;;;;8.50;99.90;;;;;;5096184;28;19908;-78
2021/11/19 06:56:46;;;;;;;;;;;8.40;99.90;;;;;;5096661;28;20279;-79
2021/11/19 06:59:11;;;;;;;;;;;8.40;99.90;;;;;;5096517;28;19908;-78
2021/11/19 07:01:37;;;;;;;;;;;8.50;99.90;;;;;;5096029;28;19908;-78
2021/11/19 07:04:03;;;;;;;;;;;8.40;99.90;;;;;;5095499;28;19914;-79
2021/11/19 07:06:30;;;;;;;;;;;8.40;99.90;;;;;;5096068;28;19908;-78
2021/11/19 07:08:56;;;;;;;;;;;8.40;99.90;;;;;;5095654;28;20036;-78
2021/11/19 07:11:22;;;;;;;;;;;8.20;99.90;;;;;;5095881;28;19908;-79
2021/11/19 07:13:49;;;;;;;;;;;8.30;99.90;;;;;;5095811;28;19915;-78
2021/11/19 07:16:16;;;;;;;;;;;8.30;99.90;;;;;;5095886;28;19908;-79
2021/11/19 07:18:42;;;;;;;;;;;8.20;99.90;;;;;;5095695;28;19940;-78
2021/11/19 07:21:08;;;;;;;;;;;8.20;99.90;;;;;;5095684;28;19999;-77
2021/11/19 07:23:33;;;;;;;;;;;8.20;99.90;;;;;;5095848;28;19996;-78
2021/11/19 07:25:59;;;;;;;;;;;8.20;99.90;;;;;;5095612;28;20296;-78
2021/11/19 07:28:25;;;;;;;;;;;8.40;99.90;;;;;;5095644;28;19985;-78
2021/11/19 07:30:53;;;;;;;;;;;8.50;99.90;;;;;;5094161;28;19937;-79
2021/11/19 07:33:19;;;;;;;;;;;8.50;99.90;;;;;;5096040;28;20003;-78
2021/11/19 07:35:46;;;;;;;;;;;8.40;99.90;;;;;;5095420;28;19958;-79
2021/11/19 07:38:11;;;;;;;;;;;8.50;99.90;;;;;;5095443;28;20287;-78
2021/11/19 07:40:38;;;;;;;;;;;8.60;99.90;;;;;;5095282;28;19908;-78
2021/11/19 07:43:04;;;;;;;;;;;8.60;99.90;;;;;;5094022;28;19908;-78
2021/11/19 07:45:36;;;;;;;;;;;8.40;99.90;;;;;;5095540;28;19918;-79
2021/11/19 07:48:06;;;;;;;;;;;8.10;99.90;;;;;;5095283;28;19961;-78
2021/11/19 07:50:32;;;;;;;;;;;8.10;99.90;;;;;;5095035;28;19918;-79
2021/11/19 07:52:58;;;;;;;;;;;8.50;99.90;;;;;;5095422;28;20002;-78
2021/11/19 07:55:24;;;;;;;;;;;8.70;99.90;;;;;;5094775;28;19908;-79
2021/11/19 07:57:50;;;;;;;;;;;8.60;99.90;;;;;;5081135;28;20087;-78
2021/11/19 08:00:18;;;;;;;;;;;8.90;99.90;;;;;;5074654;28;19995;-79
2021/11/19 08:02:44;;;;;;;;;;;9.00;99.90;;;;;;5074574;28;20364;-78
2021/11/19 08:05:10;;;;;;;;;;;8.90;99.90;;;;;;5074586;28;20021;-78
2021/11/19 08:07:35;;;;;;;;;;;9.10;99.90;;;;;;5074778;28;19909;-79
2021/11/19 08:10:02;;;;;;;;;;;9.30;99.90;;;;;;5072707;28;19953;-78
2021/11/19 08:12:28;;;;;;;;;;;9.80;99.90;;;;;;5074519;28;19916;-78
2021/11/19 08:14:53;;;;;;;;;;;10.30;99.90;;;;;;5073955;28;20280;-79
2021/11/19 08:17:25;;;;;;;;;;;11.10;99.90;;;;;;5074724;28;19943;-78
2021/11/19 08:19:51;;;;;;;;;;;11.80;99.90;;;;;;5074446;28;19994;-79
2021/11/19 08:22:16;;;;;;;;;;;12.20;99.90;;;;;;5074283;28;19948;-78
2021/11/19 08:24:42;;;;;;;;;;;13.10;99.30;;;;;;5074207;28;20369;-78
2021/11/19 08:27:14;;;;;;;;;;;13.70;97.10;;;;;;5074554;28;19935;-78
2021/11/19 08:29:41;;;;;;;;;;;13.60;95.20;;;;;;5074350;28;19912;-79
2021/11/19 08:32:08;;;;;;;;;;;14.00;95.70;;;;;;5074109;28;19960;-79
2021/11/19 08:34:34;;;;;;;;;;;13.80;95.30;;;;;;5073995;28;19908;-81
2021/11/19 08:37:01;;;;;;;;;;;14.40;95.20;;;;;;5074063;28;19988;-81
2021/11/19 08:39:27;;;;;;;;;;;15.40;93.00;;;;;;5073991;28;19909;-81
2021/11/19 08:41:53;;;;;;;;;;;16.00;91.00;;;;;;5074047;28;19915;-81
2021/11/19 08:44:20;;;;;;;;;;;16.60;88.90;;;;;;5073811;28;19908;-79
2021/11/19 08:46:47;;;;;;;;;;;17.10;85.10;;;;;;5073904;28;19908;-79
2021/11/19 08:49:15;;;;;;;;;;;17.50;85.00;;;;;;5073922;28;19913;-79
2021/11/19 08:51:41;;;;;;;;;;;18.00;81.90;;;;;;5074323;28;20357;-79
2021/11/19 08:54:07;;;;;;;;;;;18.50;79.70;;;;;;5073666;28;20454;-79
2021/11/19 08:56:35;;;;;;;;;;;18.70;78.90;;;;;;5073734;28;19908;-80
2021/11/19 08:59:01;;;;;;;;;;;18.80;77.60;;;;;;5072361;28;20278;-80
2021/11/19 09:01:27;;;;;;;;;;;19.40;76.10;;;;;;5073744;28;19916;-79
2021/11/19 09:03:52;;;;;;;;;;;19.50;74.90;;;;;;5073829;28;19908;-80
2021/11/19 09:06:19;;;;;;;;;;;19.70;75.30;;;;;;5072296;28;19908;-80
2021/11/19 09:08:45;;;;;;;;;;;20.20;73.80;;;;;;5073291;28;19921;-79
2021/11/19 09:11:12;;;;;;;;;;;20.50;72.70;;;;;;5073582;28;19908;-80
2021/11/19 09:13:38;;;;;;;;;;;20.60;70.00;;;;;;5073740;28;19908;-80
2021/11/19 09:16:05;;;;;;;;;;;20.60;70.70;;;;;;5072389;28;20301;-80
2021/11/19 09:18:40;;;;;;;;;;;20.70;69.20;;;;;;5072253;28;20015;-80
2021/11/19 09:21:05;;;;;;;;;;;20.50;69.50;;;;;;5072219;28;19965;-80
2021/11/19 09:23:33;;;;;;;;;;;21.30;69.60;;;;;;5073590;28;19912;-80
2021/11/19 09:26:03;;;;;;;;;;;20.80;70.50;;;;;;5075495;28;19908;-79
2021/11/19 09:28:30;;;;;;;;;;;21.20;67.60;;;;;;5077655;28;19908;-80
2021/11/19 09:30:58;;;;;;;;;;;21.60;67.80;;;;;;5076221;28;19913;-81
2021/11/19 09:33:24;;;;;;;;;;;23.10;65.00;;;;;;5077578;28;19932;-80
2021/11/19 09:35:51;;;;;;;;;;;22.50;64.20;;;;;;5076206;28;20384;-80
2021/11/19 09:38:18;;;;;;;;;;;21.80;65.40;;;;;;5077379;28;19912;-79
2021/11/19 09:40:46;;;;;;;;;;;21.20;67.50;;;;;;5077681;28;19909;-80
2021/11/19 09:43:19;;;;;;;;;;;20.90;67.50;;;;;;5077430;28;20466;-80
2021/11/19 09:46:03;;;;;;;;;;;21.20;67.90;;;;;;5077848;28;19912;-80
2021/11/19 09:48:44;;;;;;;;;;;21.10;67.00;;;;;;5077236;28;19995;-79
2021/11/19 09:51:29;;;;;;;;;;;21.70;67.60;;;;;;5077407;28;19912;-80
2021/11/19 09:54:13;;;;;;;;;;;22.30;65.00;;;;;;5077167;28;19915;-80
2021/11/19 09:56:44;;;;;;;;;;;22.70;63.60;;;;;;5077119;28;19908;-80
2021/11/19 09:59:20;;;;;;;;;;;23.10;62.60;;;;;;5077134;28;19928;-80
2021/11/19 10:01:53;;;;;;;;;;;23.00;62.30;;;;;;5075601;28;20411;-80
2021/11/19 10:04:18;;;;;;;;;;;23.30;61.70;;;;;;5076997;28;20421;-80
2021/11/19 10:06:53;;;;;;;;;;;23.30;62.00;;;;;;5076814;28;19971;-79
2021/11/19 10:09:29;;;;;;;;;;;24.00;60.70;;;;;;5076606;28;19920;-80
2021/11/19 10:11:59;;;;;;;;;;;24.10;59.50;;;;;;5076888;28;20017;-79
2021/11/19 10:14:25;;;;;;;;;;;24.10;59.70;;;;;;5076778;28;20383;-80
2021/11/19 10:17:11;;;;;;;;;;;24.40;58.90;;;;;;5076662;28;19909;-80
2021/11/19 10:19:37;;;;;;;;;;;24.60;58.20;;;;;;5076750;28;20373;-80
2021/11/19 10:22:12;;;;;;;;;;;24.80;57.70;;;;;;5076699;28;19945;-79
2021/11/19 10:24:44;;;;;;;;;;;25.20;57.50;;;;;;5076527;28;20262;-79
2021/11/19 10:27:11;;;;;;;;;;;25.50;56.40;;;;;;5074984;28;19999;-79
2021/11/19 10:29:40;;;;;;;;;;;25.40;56.50;;;;;;5076562;28;20388;-79
2021/11/19 10:32:08;;;;;;;;;;;25.50;56.10;;;;;;5076961;28;19916;-80
2021/11/19 10:34:33;;;;;;;;;;;25.60;55.30;;;;;;5076345;28;20261;-80
2021/11/19 10:37:19;;;;;;;;;;;25.80;55.10;;;;;;5074311;28;20007;-80
2021/11/19 10:40:03;;;;;;;;;;;25.90;54.50;;;;;;5074937;28;19908;-79
2021/11/19 10:42:35;;;;;;;;;;;25.60;55.30;;;;;;5076230;28;19995;-80
2021/11/19 10:45:19;;;;;;;;;;;26.10;54.30;;;;;;5076576;28;19919;-80
2021/11/19 10:48:02;;;;;;;;;;;26.30;54.50;;;;;;5076158;28;19915;-80
2021/11/19 10:50:36;;;;;;;;;;;26.70;53.00;;;;;;5074773;28;19965;-80
2021/11/19 10:53:20;;;;;;;;;;;26.90;52.60;;;;;;5074725;28;20325;-79
2021/11/19 10:55:45;;;;;;;;;;;26.70;53.00;;;;;;5074746;28;19967;-80
2021/11/19 10:58:11;;;;;;;;;;;27.20;52.40;;;;;;5074648;28;19909;-80
2021/11/19 11:00:42;;;;;;;;;;;27.30;52.30;;;;;;5075992;28;20007;-81
2021/11/19 11:03:14;;;;;;;;;;;27.30;52.40;;;;;;5076124;28;19908;-80
2021/11/19 11:05:44;;;;;;;;;;;27.20;52.40;;;;;;5075836;28;19944;-80
2021/11/19 11:08:19;;;;;;;;;;;27.20;52.40;;;;;;5075670;28;20367;-80
2021/11/19 11:10:47;;;;;;;;;;;27.90;50.90;;;;;;5074151;28;20345;-80
2021/11/19 11:13:27;;;;;;;;;;;27.80;50.80;;;;;;5075616;28;19908;-80
2021/11/19 11:15:56;;;;;;;;;;;28.00;50.80;;;;;;5074128;28;19909;-80
2021/11/19 11:18:23;;;;;;;;;;;28.10;50.10;;;;;;5075592;28;19951;-80
2021/11/19 11:20:52;;;;;;;;;;;28.10;50.50;;;;;;5075553;28;20380;-80
2021/11/19 11:23:30;;;;;;;;;;;28.10;50.00;;;;;;5075727;28;20429;-80
2021/11/19 11:26:07;;;;;;;;;;;27.60;49.60;;;;;;5075340;28;20380;-80
2021/11/19 11:28:51;;;;;;;;;;;28.20;49.50;;;;;;5075667;28;19916;-80
2021/11/19 11:31:35;;;;;;;;;;;28.60;49.90;;;;;;5075252;28;19912;-79
2021/11/19 11:34:19;;;;;;;;;;;28.50;50.10;;;;;;5075267;28;20288;-80
2021/11/19 11:36:47;;;;;;;;;;;28.40;49.60;;;;;;5075718;28;20250;-80
2021/11/19 11:39:15;;;;;;;;;;;28.00;49.90;;;;;;5075039;28;20419;-79
2021/11/19 11:41:40;;;;;;;;;;;29.10;49.10;;;;;;5075161;28;19961;-80
2021/11/19 11:44:14;;;;;;;;;;;29.30;48.70;;;;;;5075044;28;19908;-79
2021/11/19 11:46:40;;;;;;;;;;;25.90;52.00;;;;;;5074972;28;19912;-80
2021/11/19 11:49:09;;;;;;;;;;;27.90;50.30;;;;;;5074002;28;20287;-80
2021/11/19 11:51:53;;;;;;;;;;;28.40;49.70;;;;;;5073654;28;19979;-80
2021/11/19 11:54:25;;;;;;;;;;;29.30;48.60;;;;;;5074865;28;19908;-79
2021/11/19 11:57:10;;;;;;;;;;;28.90;47.50;;;;;;5073482;28;20403;-80
2021/11/19 11:59:42;;;;;;;;;;;29.40;48.10;;;;;;5075192;28;19915;-80
2021/11/19 12:02:23;;;;;;;;;;;29.70;47.80;;;;;;5074736;28;19909;-80
2021/11/19 12:04:58;;;;;;;;;;;29.10;47.10;;;;;;5075275;28;20009;-81
2021/11/19 12:07:35;;;;;;;;;;;28.90;48.20;;;;;;5073450;28;19919;-79
2021/11/19 12:10:19;;;;;;;;;;;29.10;47.80;;;;;;5081806;28;19927;-77
2021/11/19 12:12:46;;;;;;;;;;;29.50;46.60;;;;;;5088167;28;19909;-77
2021/11/19 12:15:15;;;;;;;;;;;29.60;46.00;;;;;;5094014;28;19915;-77
2021/11/19 12:18:00;;;;;;;;;;;29.40;47.20;;;;;;5093873;28;19908;-78
2021/11/19 12:20:32;;;;;;;;;;;29.50;46.40;;;;;;5090221;28;19908;-78
2021/11/19 12:23:20;;;;;;;;;;;29.70;46.40;;;;;;5093906;28;19929;-78
2021/11/19 12:26:04;;;;;;;;;;;29.30;45.90;;;;;;5088830;28;19930;-77
2021/11/19 12:28:35;;;;;;;;;;;28.70;45.80;;;;;;5092011;28;19938;-78
2021/11/19 12:31:00;;;;;;;;;;;28.50;46.40;;;;;;5092351;28;19912;-78
2021/11/19 12:33:28;;;;;;;;;;;29.00;46.20;;;;;;5093748;28;19945;-78
2021/11/19 12:36:00;;;;;;;;;;;28.80;46.30;;;;;;5092367;28;19915;-78
2021/11/19 12:38:31;;;;;;;;;;;28.30;46.90;;;;;;5091028;28;19930;-78
2021/11/19 12:41:11;;;;;;;;;;;28.50;46.20;;;;;;5092317;28;19912;-78
2021/11/19 12:43:40;;;;;;;;;;;28.60;46.30;;;;;;5092647;28;20300;-77
2021/11/19 12:46:24;;;;;;;;;;;28.30;46.80;;;;;;5091203;28;20434;-79
2021/11/19 12:49:00;;;;;;;;;;;29.20;46.40;;;;;;5091569;28;20277;-78
2021/11/19 12:51:28;;;;;;;;;;;29.30;46.10;;;;;;5092447;28;19908;-78
2021/11/19 12:53:53;;;;;;;;;;;28.60;46.30;;;;;;5094282;28;19908;-78
2021/11/19 12:56:38;;;;;;;;;;;28.40;47.10;;;;;;5093912;28;20364;-78
2021/11/19 12:59:06;;;;;;;;;;;28.10;47.00;;;;;;5093894;28;19908;-78
2021/11/19 13:01:32;;;;;;;;;;;28.30;46.90;;;;;;5093826;28;19943;-77
2021/11/19 13:04:03;;;;;;;;;;;27.90;47.90;;;;;;5092564;28;19908;-77
2021/11/19 13:06:37;;;;;;;;;;;28.00;48.10;;;;;;5094158;28;19914;-78
2021/11/19 13:09:14;;;;;;;;;;;27.50;48.30;;;;;;5093543;28;19970;-78
2021/11/19 13:11:51;;;;;;;;;;;27.80;48.30;;;;;;5093410;28;20193;-77
2021/11/19 13:14:20;;;;;;;;;;;27.10;48.20;;;;;;5093982;28;19920;-78
2021/11/19 13:16:49;;;;;;;;;;;26.80;48.70;;;;;;5093864;28;19909;-78
2021/11/19 13:19:27;;;;;;;;;;;26.70;49.70;;;;;;5093587;28;19977;-78
2021/11/19 13:21:54;;;;;;;;;;;26.70;49.90;;;;;;5093958;28;19987;-78
2021/11/19 13:24:26;;;;;;;;;;;26.80;49.70;;;;;;5093705;28;19916;-77
2021/11/19 13:27:06;;;;;;;;;;;27.00;48.90;;;;;;5093811;28;19915;-77
2021/11/19 13:29:47;;;;;;;;;;;26.90;49.10;;;;;;5093678;28;19915;-78
2021/11/19 13:32:19;;;;;;;;;;;26.90;50.40;;;;;;5092349;28;19913;-78
2021/11/19 13:34:45;;;;;;;;;;;27.00;49.70;;;;;;5092336;28;19908;-78
2021/11/19 13:37:14;;;;;;;;;;;26.70;49.90;;;;;;5093779;28;19908;-78
2021/11/19 13:39:41;;;;;;;;;;;26.80;49.30;;;;;;5093530;28;19912;-77
2021/11/19 13:42:07;;;;;;;;;;;26.70;50.40;;;;;;5093542;28;20010;-78
2021/11/19 13:44:44;;;;;;;;;;;26.40;50.50;;;;;;5093620;28;19951;-78
2021/11/19 13:47:26;;;;;;;;;;;26.10;51.20;;;;;;5092156;28;19959;-78
2021/11/19 13:50:00;;;;;;;;;;;26.20;50.90;;;;;;5093897;28;19916;-78
2021/11/19 13:52:28;;;;;;;;;;;25.90;50.80;;;;;;5091910;28;19915;-78
2021/11/19 13:55:29;;;;;;;;;;;25.60;51.60;;;;;;5093761;28;19916;-78
2021/11/19 13:57:56;;;;;;;;;;;25.30;51.90;;;;;;5050985;28;20003;-77
2021/11/19 14:00:28;;;;;;;;;;;25.00;52.80;;;;;;5084758;28;19912;-77
2021/11/19 14:02:55;;;;;;;;;;;24.90;52.90;;;;;;5093369;28;19908;-77
2021/11/19 14:05:20;;;;;;;;;;;23.50;54.10;;;;;;5093423;28;20376;-78
2021/11/19 14:07:49;;;;;;;;;;;24.10;54.60;;;;;;5093385;28;19944;-78
2021/11/19 14:10:28;;;;;;;;;;;24.40;53.60;;;;;;5092798;28;19920;-77
2021/11/19 14:12:58;;;;;;;;;;;23.20;55.50;;;;;;5094887;28;19915;-77
2021/11/19 14:15:45;;;;;;;;;;;23.60;55.00;;;;;;5097217;28;20346;-78
2021/11/19 14:23:41;;;;;;;;;;;22.20;57.60;;;;;;5096862;28;19965;-77
2021/11/19 14:26:36;;;;;;;;;;;23.00;57.90;;;;;;5096789;28;20331;-76
2021/11/19 14:29:08;;;;;;;;;;;23.20;57.00;;;;;;5087601;28;19915;-78
2021/11/19 14:31:33;;;;;;;;;;;23.50;55.50;;;;;;5096805;28;20368;-78
2021/11/19 14:34:02;;;;;;;;;;;23.80;55.20;;;;;;5096931;28;19909;-77
2021/11/19 14:36:30;;;;;;;;;;;23.70;55.60;;;;;;5096823;28;19934;-77